createdAt,value
2022-10-18T00:28:35.685Z,1025.11
2022-10-18T00:57:13.650Z,1025.18
2022-10-18T01:25:54.807Z,1025.01
2022-10-18T01:54:42.069Z,1024.84
2022-10-18T02:23:22.620Z,1024.71
2022-10-18T02:52:03.217Z,1024.73
2022-10-18T03:20:46.357Z,1024.81
2022-10-18T03:49:29.924Z,1025.06
2022-10-18T04:18:05.168Z,1025.2
2022-10-18T04:46:46.757Z,1025.3
2022-10-18T05:15:26.946Z,1025.31
2022-10-18T05:44:05.252Z,1025.26
2022-10-18T06:12:38.224Z,1025.24
2022-10-18T06:41:12.717Z,1025.54
2022-10-18T07:09:47.521Z,1025.95
2022-10-18T07:38:15.644Z,1026.19
2022-10-18T08:06:45.942Z,1026.39
2022-10-18T08:35:17.883Z,1026.58
2022-10-18T09:03:57.828Z,1026.52
2022-10-18T09:32:36.804Z,1026.6
2022-10-18T10:01:12.477Z,1026.57
2022-10-18T10:29:46.670Z,1026.53
2022-10-18T10:58:12.676Z,1026.48
2022-10-18T11:26:54.417Z,1026.41
2022-10-18T11:55:06.891Z,1026.12
2022-10-18T12:23:25.416Z,1025.9
2022-10-18T12:51:59.840Z,1025.74
2022-10-18T13:20:42.628Z,1025.51
2022-10-18T13:49:06.775Z,1025.57
2022-10-18T14:18:20.850Z,1025.61
2022-10-18T14:46:14.754Z,1025.57
2022-10-18T15:14:38.777Z,1025.43
2022-10-18T15:43:01.217Z,1025.2
2022-10-18T16:11:24.016Z,1025.32
2022-10-18T16:39:51.777Z,1025.53
2022-10-18T17:08:19.382Z,1025.81
2022-10-18T17:36:30.765Z,1026.06
2022-10-18T18:05:00.152Z,1026.08
2022-10-18T18:33:34.622Z,1026.32
2022-10-18T20:56:55.932Z,1026.1
2022-10-18T21:53:30.372Z,1025.73
2022-10-18T22:22:08.697Z,1025.72
2022-10-18T22:50:45.401Z,1025.56
2022-10-18T23:19:25.135Z,1025.61
2022-10-18T23:48:12.389Z,1025.2
